sim
Sign-in with your pilot id or email,
or register
Callsign
Passwort

Schedule Details

Flight Number: DLH1844 (2)
Departure: Munich Airport (EDDM) at 11:20
Arrival: Rome Leonardo da Vinci Fiumicino Airport (LIRF) at 12:50
Route: Lufthansa Passenger Schedule. Enter filed route here before submitting Pirep.

Weather Information
Getting current METAR information for EDDM 211820Z 10001KT CAVOK 15/13 Q1016 NOSIG
Getting current METAR information for LIRF 211820Z 27004KT 9999 SCT017 24/21 Q1015 NOSIG

Schedule Frequency

Route Map